sensor_id;sensor_type;location;lat;lon;timestamp;pressure;altitude;pressure_sealevel;temperature;humidity
24996;BME280;13016;52.162;21.034;2024-03-25T00:05:50;98950.25;;;12.60;45.18
24996;BME280;13016;52.162;21.034;2024-03-25T00:11:50;98949.11;;;12.59;45.39
24996;BME280;13016;52.162;21.034;2024-03-25T00:17:51;98945.38;;;12.29;45.83
24996;BME280;13016;52.162;21.034;2024-03-25T00:23:51;98941.30;;;12.12;46.15
24996;BME280;13016;52.162;21.034;2024-03-25T00:29:51;98942.43;;;11.88;46.39
24996;BME280;13016;52.162;21.034;2024-03-25T00:35:51;98941.45;;;11.54;47.29
24996;BME280;13016;52.162;21.034;2024-03-25T00:41:53;98937.23;;;11.52;47.23
24996;BME280;13016;52.162;21.034;2024-03-25T00:47:53;98932.02;;;11.64;46.89
24996;BME280;13016;52.162;21.034;2024-03-25T00:53:53;98931.42;;;11.34;47.36
24996;BME280;13016;52.162;21.034;2024-03-25T00:59:53;98922.79;;;11.34;47.40
24996;BME280;13016;52.162;21.034;2024-03-25T01:05:54;98914.42;;;11.20;47.61
24996;BME280;13016;52.162;21.034;2024-03-25T01:11:54;98916.86;;;11.23;47.97
24996;BME280;13016;52.162;21.034;2024-03-25T01:17:54;98917.95;;;11.44;47.73
24996;BME280;13016;52.162;21.034;2024-03-25T01:23:55;98915.32;;;11.26;47.79
24996;BME280;13016;52.162;21.034;2024-03-25T01:29:55;98907.47;;;10.97;48.55
24996;BME280;13016;52.162;21.034;2024-03-25T01:35:55;98904.17;;;11.06;48.56
24996;BME280;13016;52.162;21.034;2024-03-25T01:41:55;98902.05;;;11.18;48.27
24996;BME280;13016;52.162;21.034;2024-03-25T01:48:02;98903.17;;;11.28;48.20
24996;BME280;13016;52.162;21.034;2024-03-25T01:54:06;98899.27;;;11.40;47.93
24996;BME280;13016;52.162;21.034;2024-03-25T02:00:07;98893.97;;;11.26;48.03
24996;BME280;13016;52.162;21.034;2024-03-25T02:06:10;98895.69;;;10.89;48.91
24996;BME280;13016;52.162;21.034;2024-03-25T02:12:12;98898.65;;;10.68;49.44
24996;BME280;13016;52.162;21.034;2024-03-25T02:18:12;98892.23;;;10.73;49.36
24996;BME280;13016;52.162;21.034;2024-03-25T02:24:13;98893.86;;;10.64;49.57
24996;BME280;13016;52.162;21.034;2024-03-25T02:30:15;98894.85;;;10.68;49.70
24996;BME280;13016;52.162;21.034;2024-03-25T02:36:16;98901.85;;;10.74;49.35
24996;BME280;13016;52.162;21.034;2024-03-25T02:42:16;98907.33;;;10.72;49.51
24996;BME280;13016;52.162;21.034;2024-03-25T02:48:17;98906.91;;;10.77;49.64
24996;BME280;13016;52.162;21.034;2024-03-25T02:54:17;98907.92;;;10.75;49.50
24996;BME280;13016;52.162;21.034;2024-03-25T03:00:17;98913.73;;;10.65;49.71
24996;BME280;13016;52.162;21.034;2024-03-25T03:06:18;98907.45;;;10.50;50.05
24996;BME280;13016;52.162;21.034;2024-03-25T03:12:18;98911.54;;;10.39;50.43
24996;BME280;13016;52.162;21.034;2024-03-25T03:18:18;98923.08;;;10.46;50.49
24996;BME280;13016;52.162;21.034;2024-03-25T03:24:19;98924.23;;;10.54;50.25
24996;BME280;13016;52.162;21.034;2024-03-25T03:30:19;98925.33;;;10.39;50.49
24996;BME280;13016;52.162;21.034;2024-03-25T03:36:21;98927.38;;;10.44;50.59
24996;BME280;13016;52.162;21.034;2024-03-25T03:42:22;98937.89;;;10.47;50.56
24996;BME280;13016;52.162;21.034;2024-03-25T03:48:22;98941.45;;;10.31;50.82
24996;BME280;13016;52.162;21.034;2024-03-25T03:54:23;98943.64;;;10.21;50.97
24996;BME280;13016;52.162;21.034;2024-03-25T04:00:23;98946.68;;;10.06;51.50
24996;BME280;13016;52.162;21.034;2024-03-25T04:06:23;98952.72;;;10.10;51.59
24996;BME280;13016;52.162;21.034;2024-03-25T04:12:23;98957.80;;;10.14;51.42
24996;BME280;13016;52.162;21.034;2024-03-25T04:18:24;98956.67;;;9.98;51.59
24996;BME280;13016;52.162;21.034;2024-03-25T04:24:26;98957.03;;;9.95;51.72
24996;BME280;13016;52.162;21.034;2024-03-25T04:30:26;98956.70;;;9.97;51.86
24996;BME280;13016;52.162;21.034;2024-03-25T04:36:27;98952.59;;;10.05;51.49
24996;BME280;13016;52.162;21.034;2024-03-25T04:42:27;98955.83;;;9.89;51.95
24996;BME280;13016;52.162;21.034;2024-03-25T04:48:27;98958.23;;;10.00;51.76
24996;BME280;13016;52.162;21.034;2024-03-25T04:54:28;98957.39;;;10.04;51.62
24996;BME280;13016;52.162;21.034;2024-03-25T05:00:28;98955.70;;;10.10;51.52
24996;BME280;13016;52.162;21.034;2024-03-25T05:06:28;98961.52;;;10.08;51.60
24996;BME280;13016;52.162;21.034;2024-03-25T05:12:28;98964.77;;;10.17;51.44
24996;BME280;13016;52.162;21.034;2024-03-25T05:18:29;98964.13;;;10.25;51.21
24996;BME280;13016;52.162;21.034;2024-03-25T05:24:30;98964.20;;;10.35;51.10
24996;BME280;13016;52.162;21.034;2024-03-25T05:30:30;98962.97;;;10.56;50.60
24996;BME280;13016;52.162;21.034;2024-03-25T05:36:31;98969.64;;;10.55;50.48
24996;BME280;13016;52.162;21.034;2024-03-25T05:42:31;98964.27;;;10.47;50.54
24996;BME280;13016;52.162;21.034;2024-03-25T05:48:31;98973.36;;;10.77;50.63
24996;BME280;13016;52.162;21.034;2024-03-25T05:54:31;98979.73;;;11.22;49.71
24996;BME280;13016;52.162;21.034;2024-03-25T06:00:32;98980.63;;;11.67;49.03
24996;BME280;13016;52.162;21.034;2024-03-25T06:06:32;98988.77;;;11.85;48.39
24996;BME280;13016;52.162;21.034;2024-03-25T06:12:33;98997.11;;;12.53;47.51
24996;BME280;13016;52.162;21.034;2024-03-25T06:18:33;99002.30;;;13.04;45.63
24996;BME280;13016;52.162;21.034;2024-03-25T06:24:33;99001.66;;;13.60;43.89
24996;BME280;13016;52.162;21.034;2024-03-25T06:30:39;98997.38;;;13.86;42.78
24996;BME280;13016;52.162;21.034;2024-03-25T06:36:41;98998.95;;;13.62;42.78
24996;BME280;13016;52.162;21.034;2024-03-25T06:42:41;99002.55;;;13.36;43.24
24996;BME280;13016;52.162;21.034;2024-03-25T06:48:41;99012.23;;;13.68;43.49
24996;BME280;13016;52.162;21.034;2024-03-25T06:54:42;99017.12;;;14.40;42.52
24996;BME280;13016;52.162;21.034;2024-03-25T07:00:42;99027.47;;;15.50;41.11
24996;BME280;13016;52.162;21.034;2024-03-25T07:06:42;99018.95;;;15.82;39.41
24996;BME280;13016;52.162;21.034;2024-03-25T07:12:42;99021.92;;;15.85;38.89
24996;BME280;13016;52.162;21.034;2024-03-25T07:18:43;99023.35;;;15.71;39.57
24996;BME280;13016;52.162;21.034;2024-03-25T07:24:43;99026.98;;;15.82;39.12
24996;BME280;13016;52.162;21.034;2024-03-25T07:30:43;99025.53;;;15.72;39.12
24996;BME280;13016;52.162;21.034;2024-03-25T07:36:43;99029.64;;;15.65;39.62
24996;BME280;13016;52.162;21.034;2024-03-25T07:42:44;99032.98;;;15.62;39.77
24996;BME280;13016;52.162;21.034;2024-03-25T07:48:44;99038.78;;;15.81;40.32
24996;BME280;13016;52.162;21.034;2024-03-25T07:54:45;99036.86;;;16.30;39.86
24996;BME280;13016;52.162;21.034;2024-03-25T08:00:45;99042.42;;;16.57;39.05
24996;BME280;13016;52.162;21.034;2024-03-25T08:06:46;99043.31;;;16.56;38.78
24996;BME280;13016;52.162;21.034;2024-03-25T08:12:47;99042.88;;;16.64;38.50
24996;BME280;13016;52.162;21.034;2024-03-25T08:18:47;99049.32;;;16.91;38.52
24996;BME280;13016;52.162;21.034;2024-03-25T08:24:47;99056.54;;;17.22;38.13
24996;BME280;13016;52.162;21.034;2024-03-25T08:30:49;99050.38;;;17.24;37.43
24996;BME280;13016;52.162;21.034;2024-03-25T08:36:49;99052.09;;;17.25;37.53
24996;BME280;13016;52.162;21.034;2024-03-25T08:42:50;99057.39;;;17.43;36.69
24996;BME280;13016;52.162;21.034;2024-03-25T08:48:56;99052.75;;;18.19;35.47
24996;BME280;13016;52.162;21.034;2024-03-25T08:54:58;99053.16;;;18.81;34.19
24996;BME280;13016;52.162;21.034;2024-03-25T09:00:58;99054.23;;;19.29;32.58
24996;BME280;13016;52.162;21.034;2024-03-25T09:06:58;99059.41;;;19.21;32.37
24996;BME280;13016;52.162;21.034;2024-03-25T09:12:58;99064.15;;;19.88;31.90
24996;BME280;13016;52.162;21.034;2024-03-25T09:18:59;99052.71;;;19.96;31.73
24996;BME280;13016;52.162;21.034;2024-03-25T09:24:59;99059.77;;;19.55;31.12
24996;BME280;13016;52.162;21.034;2024-03-25T09:30:59;99060.60;;;19.55;31.45
24996;BME280;13016;52.162;21.034;2024-03-25T09:37:00;99067.98;;;19.52;31.28
24996;BME280;13016;52.162;21.034;2024-03-25T09:43:02;99062.48;;;18.98;31.70
24996;BME280;13016;52.162;21.034;2024-03-25T09:49:02;99061.33;;;18.47;31.98
24996;BME280;13016;52.162;21.034;2024-03-25T09:55:03;99065.22;;;18.13;32.01
24996;BME280;13016;52.162;21.034;2024-03-25T10:01:03;99071.40;;;18.18;32.51
24996;BME280;13016;52.162;21.034;2024-03-25T10:07:04;99074.25;;;18.15;32.65
24996;BME280;13016;52.162;21.034;2024-03-25T10:13:04;99074.67;;;18.05;33.25
24996;BME280;13016;52.162;21.034;2024-03-25T10:19:05;99077.51;;;17.98;33.87
24996;BME280;13016;52.162;21.034;2024-03-25T10:25:05;99084.44;;;17.96;34.27
24996;BME280;13016;52.162;21.034;2024-03-25T10:31:06;99086.06;;;17.85;34.69
24996;BME280;13016;52.162;21.034;2024-03-25T10:37:09;99084.92;;;17.84;34.50
24996;BME280;13016;52.162;21.034;2024-03-25T10:43:11;99085.25;;;17.87;34.58
24996;BME280;13016;52.162;21.034;2024-03-25T10:49:33;99086.85;;;17.95;34.25
24996;BME280;13016;52.162;21.034;2024-03-25T10:55:33;99086.84;;;18.16;34.05
24996;BME280;13016;52.162;21.034;2024-03-25T11:01:36;99080.16;;;17.93;33.09
24996;BME280;13016;52.162;21.034;2024-03-25T11:07:37;99081.10;;;17.89;32.41
24996;BME280;13016;52.162;21.034;2024-03-25T11:13:37;99079.46;;;18.05;31.71
24996;BME280;13016;52.162;21.034;2024-03-25T11:19:39;99077.83;;;17.74;32.14
24996;BME280;13016;52.162;21.034;2024-03-25T11:25:42;99070.42;;;17.94;32.11
24996;BME280;13016;52.162;21.034;2024-03-25T11:31:42;99071.27;;;18.21;32.50
24996;BME280;13016;52.162;21.034;2024-03-25T11:37:44;99071.52;;;18.23;32.59
24996;BME280;13016;52.162;21.034;2024-03-25T11:43:44;99065.59;;;18.20;31.95
24996;BME280;13016;52.162;21.034;2024-03-25T11:49:44;99058.77;;;18.26;31.39
24996;BME280;13016;52.162;21.034;2024-03-25T11:55:47;99061.36;;;18.08;32.05
24996;BME280;13016;52.162;21.034;2024-03-25T12:01:47;99060.39;;;18.27;33.08
24996;BME280;13016;52.162;21.034;2024-03-25T12:07:48;99058.86;;;18.50;32.10
24996;BME280;13016;52.162;21.034;2024-03-25T12:13:48;99063.95;;;18.38;32.26
24996;BME280;13016;52.162;21.034;2024-03-25T12:20:08;99060.73;;;18.65;32.32
24996;BME280;13016;52.162;21.034;2024-03-25T12:26:09;99064.08;;;18.24;32.98
24996;BME280;13016;52.162;21.034;2024-03-25T12:32:10;99073.91;;;18.29;33.44
24996;BME280;13016;52.162;21.034;2024-03-25T12:38:21;99080.11;;;18.12;32.67
24996;BME280;13016;52.162;21.034;2024-03-25T12:44:21;99083.28;;;18.15;31.67
24996;BME280;13016;52.162;21.034;2024-03-25T12:50:21;99081.06;;;17.76;31.93
24996;BME280;13016;52.162;21.034;2024-03-25T12:56:22;99079.27;;;17.83;31.55
24996;BME280;13016;52.162;21.034;2024-03-25T13:02:22;99084.44;;;17.98;32.92
24996;BME280;13016;52.162;21.034;2024-03-25T13:08:23;99088.13;;;18.33;33.45
24996;BME280;13016;52.162;21.034;2024-03-25T13:14:24;99085.88;;;18.50;33.81
24996;BME280;13016;52.162;21.034;2024-03-25T13:20:24;99090.39;;;18.32;33.76
24996;BME280;13016;52.162;21.034;2024-03-25T13:26:25;99102.67;;;17.93;34.42
24996;BME280;13016;52.162;21.034;2024-03-25T13:32:25;99106.39;;;18.19;34.12
24996;BME280;13016;52.162;21.034;2024-03-25T13:38:26;99113.05;;;18.07;34.28
24996;BME280;13016;52.162;21.034;2024-03-25T13:44:27;99111.29;;;18.00;34.24
24996;BME280;13016;52.162;21.034;2024-03-25T13:50:27;99108.45;;;17.63;35.26
24996;BME280;13016;52.162;21.034;2024-03-25T13:56:27;99109.15;;;17.58;35.42
24996;BME280;13016;52.162;21.034;2024-03-25T14:02:27;99108.85;;;17.52;35.14
24996;BME280;13016;52.162;21.034;2024-03-25T14:08:28;99109.66;;;17.62;35.40
24996;BME280;13016;52.162;21.034;2024-03-25T14:14:28;99112.36;;;17.62;35.84
24996;BME280;13016;52.162;21.034;2024-03-25T14:20:29;99121.64;;;17.60;35.73
24996;BME280;13016;52.162;21.034;2024-03-25T14:26:30;99122.98;;;17.66;35.48
24996;BME280;13016;52.162;21.034;2024-03-25T14:32:30;99128.64;;;17.69;35.32
24996;BME280;13016;52.162;21.034;2024-03-25T14:38:30;99124.80;;;17.66;35.41
24996;BME280;13016;52.162;21.034;2024-03-25T14:44:30;99123.95;;;17.62;35.59
24996;BME280;13016;52.162;21.034;2024-03-25T14:50:31;99127.04;;;17.61;35.02
24996;BME280;13016;52.162;21.034;2024-03-25T14:56:34;99125.54;;;17.47;35.06
24996;BME280;13016;52.162;21.034;2024-03-25T15:02:34;99128.23;;;17.39;35.12
24996;BME280;13016;52.162;21.034;2024-03-25T15:09:06;99125.67;;;17.43;34.96
24996;BME280;13016;52.162;21.034;2024-03-25T15:15:09;99128.54;;;17.57;34.69
24996;BME280;13016;52.162;21.034;2024-03-25T15:21:09;99131.36;;;17.46;34.82
24996;BME280;13016;52.162;21.034;2024-03-25T15:27:10;99134.11;;;17.49;34.57
24996;BME280;13016;52.162;21.034;2024-03-25T15:33:10;99138.13;;;17.45;34.15
24996;BME280;13016;52.162;21.034;2024-03-25T15:39:10;99138.48;;;17.40;33.90
24996;BME280;13016;52.162;21.034;2024-03-25T15:45:11;99139.58;;;17.43;34.30
24996;BME280;13016;52.162;21.034;2024-03-25T15:51:11;99141.06;;;17.42;34.27
24996;BME280;13016;52.162;21.034;2024-03-25T15:57:12;99149.34;;;17.29;34.19
24996;BME280;13016;52.162;21.034;2024-03-25T16:03:12;99155.23;;;17.22;34.46
24996;BME280;13016;52.162;21.034;2024-03-25T16:09:12;99156.59;;;17.21;34.79
24996;BME280;13016;52.162;21.034;2024-03-25T16:15:13;99169.14;;;17.00;35.65
24996;BME280;13016;52.162;21.034;2024-03-25T16:21:17;99176.51;;;16.91;35.87
24996;BME280;13016;52.162;21.034;2024-03-25T16:27:22;99186.02;;;16.74;35.83
24996;BME280;13016;52.162;21.034;2024-03-25T16:33:30;99199.31;;;16.51;36.01
24996;BME280;13016;52.162;21.034;2024-03-25T16:39:31;99205.39;;;16.28;36.25
24996;BME280;13016;52.162;21.034;2024-03-25T16:45:32;99210.78;;;16.09;36.99
24996;BME280;13016;52.162;21.034;2024-03-25T16:51:32;99221.29;;;15.89;37.81
24996;BME280;13016;52.162;21.034;2024-03-25T16:57:33;99228.98;;;15.68;38.50
24996;BME280;13016;52.162;21.034;2024-03-25T17:03:34;99229.91;;;15.57;38.95
24996;BME280;13016;52.162;21.034;2024-03-25T17:09:34;99238.46;;;15.57;38.98
24996;BME280;13016;52.162;21.034;2024-03-25T17:15:35;99249.71;;;15.51;39.20
24996;BME280;13016;52.162;21.034;2024-03-25T17:21:35;99259.84;;;15.42;39.46
24996;BME280;13016;52.162;21.034;2024-03-25T17:27:35;99269.35;;;15.34;39.63
24996;BME280;13016;52.162;21.034;2024-03-25T17:33:37;99280.08;;;15.31;39.74
24996;BME280;13016;52.162;21.034;2024-03-25T17:39:37;99286.19;;;15.27;40.03
24996;BME280;13016;52.162;21.034;2024-03-25T17:45:37;99284.14;;;15.33;40.02
24996;BME280;13016;52.162;21.034;2024-03-25T17:51:38;99286.83;;;15.39;40.10
24996;BME280;13016;52.162;21.034;2024-03-25T17:57:39;99293.66;;;15.43;40.06
24996;BME280;13016;52.162;21.034;2024-03-25T18:03:46;99300.20;;;15.29;40.73
24996;BME280;13016;52.162;21.034;2024-03-25T18:09:46;99303.71;;;15.33;40.84
24996;BME280;13016;52.162;21.034;2024-03-25T18:15:53;99313.01;;;15.32;41.04
24996;BME280;13016;52.162;21.034;2024-03-25T18:21:53;99315.60;;;15.29;41.24
24996;BME280;13016;52.162;21.034;2024-03-25T18:27:54;99322.05;;;15.25;41.55
24996;BME280;13016;52.162;21.034;2024-03-25T18:33:54;99324.33;;;15.24;41.55
24996;BME280;13016;52.162;21.034;2024-03-25T18:39:54;99331.17;;;15.23;41.53
24996;BME280;13016;52.162;21.034;2024-03-25T18:45:55;99332.40;;;15.19;41.58
24996;BME280;13016;52.162;21.034;2024-03-25T18:51:58;99339.67;;;15.07;41.86
24996;BME280;13016;52.162;21.034;2024-03-25T18:57:58;99341.73;;;14.94;42.14
24996;BME280;13016;52.162;21.034;2024-03-25T19:04:01;99344.91;;;14.93;42.21
24996;BME280;13016;52.162;21.034;2024-03-25T19:10:02;99349.23;;;14.82;42.38
24996;BME280;13016;52.162;21.034;2024-03-25T19:16:02;99351.79;;;14.85;42.27
24996;BME280;13016;52.162;21.034;2024-03-25T19:22:03;99354.15;;;14.79;42.30
24996;BME280;13016;52.162;21.034;2024-03-25T19:34:26;99357.09;;;14.69;42.40
24996;BME280;13016;52.162;21.034;2024-03-25T19:40:26;99362.38;;;14.62;42.42
24996;BME280;13016;52.162;21.034;2024-03-25T19:46:27;99370.94;;;14.63;42.29
24996;BME280;13016;52.162;21.034;2024-03-25T19:52:30;99376.45;;;14.46;42.51
24996;BME280;13016;52.162;21.034;2024-03-25T19:58:33;99375.69;;;14.22;43.07
24996;BME280;13016;52.162;21.034;2024-03-25T20:04:34;99380.14;;;14.18;43.30
24996;BME280;13016;52.162;21.034;2024-03-25T20:10:40;99393.50;;;14.10;43.31
24996;BME280;13016;52.162;21.034;2024-03-25T20:16:40;99396.13;;;14.04;43.33
24996;BME280;13016;52.162;21.034;2024-03-25T20:22:41;99388.52;;;13.88;43.59
24996;BME280;13016;52.162;21.034;2024-03-25T20:28:41;99399.48;;;13.75;43.93
24996;BME280;13016;52.162;21.034;2024-03-25T20:34:41;99401.73;;;13.65;44.12
24996;BME280;13016;52.162;21.034;2024-03-25T20:40:42;99407.93;;;13.73;43.77
24996;BME280;13016;52.162;21.034;2024-03-25T20:46:42;99412.86;;;13.60;44.03
24996;BME280;13016;52.162;21.034;2024-03-25T20:52:43;99410.91;;;13.44;44.48
24996;BME280;13016;52.162;21.034;2024-03-25T20:58:44;99420.50;;;13.34;44.75
24996;BME280;13016;52.162;21.034;2024-03-25T21:04:44;99421.57;;;13.22;45.04
24996;BME280;13016;52.162;21.034;2024-03-25T21:10:44;99423.56;;;13.13;45.31
24996;BME280;13016;52.162;21.034;2024-03-25T21:16:45;99424.73;;;13.04;45.44
24996;BME280;13016;52.162;21.034;2024-03-25T21:22:45;99420.88;;;12.95;45.72
24996;BME280;13016;52.162;21.034;2024-03-25T21:28:45;99425.48;;;12.85;45.93
24996;BME280;13016;52.162;21.034;2024-03-25T21:34:45;99431.71;;;12.74;46.17
24996;BME280;13016;52.162;21.034;2024-03-25T21:40:46;99436.66;;;12.61;46.53
24996;BME280;13016;52.162;21.034;2024-03-25T21:46:46;99441.19;;;12.51;46.74
24996;BME280;13016;52.162;21.034;2024-03-25T21:52:46;99445.98;;;12.53;46.78
24996;BME280;13016;52.162;21.034;2024-03-25T21:58:46;99447.59;;;12.49;46.83
24996;BME280;13016;52.162;21.034;2024-03-25T22:04:47;99452.80;;;12.37;47.04
24996;BME280;13016;52.162;21.034;2024-03-25T22:10:47;99457.00;;;12.34;47.22
24996;BME280;13016;52.162;21.034;2024-03-25T22:16:48;99463.69;;;12.28;47.65
24996;BME280;13016;52.162;21.034;2024-03-25T22:22:49;99461.31;;;12.27;47.95
24996;BME280;13016;52.162;21.034;2024-03-25T22:28:49;99460.60;;;12.25;48.17
24996;BME280;13016;52.162;21.034;2024-03-25T22:34:50;99464.61;;;12.25;48.09
24996;BME280;13016;52.162;21.034;2024-03-25T22:40:50;99472.23;;;12.21;48.19
24996;BME280;13016;52.162;21.034;2024-03-25T22:46:51;99473.90;;;12.20;48.45
24996;BME280;13016;52.162;21.034;2024-03-25T22:52:51;99479.48;;;12.20;48.46
24996;BME280;13016;52.162;21.034;2024-03-25T22:58:51;99477.69;;;12.19;48.41
24996;BME280;13016;52.162;21.034;2024-03-25T23:04:52;99481.16;;;12.15;48.48
24996;BME280;13016;52.162;21.034;2024-03-25T23:10:52;99487.98;;;12.05;48.77
24996;BME280;13016;52.162;21.034;2024-03-25T23:16:52;99487.48;;;12.03;48.90
24996;BME280;13016;52.162;21.034;2024-03-25T23:22:53;99490.25;;;11.97;48.94
24996;BME280;13016;52.162;21.034;2024-03-25T23:28:54;99489.18;;;11.86;49.23
24996;BME280;13016;52.162;21.034;2024-03-25T23:34:54;99489.67;;;11.78;49.61
24996;BME280;13016;52.162;21.034;2024-03-25T23:40:54;99495.86;;;11.82;49.43
24996;BME280;13016;52.162;21.034;2024-03-25T23:46:55;99498.23;;;11.77;49.30
24996;BME280;13016;52.162;21.034;2024-03-25T23:52:55;99502.14;;;11.70;49.45
24996;BME280;13016;52.162;21.034;2024-03-25T23:58:55;99499.36;;;11.63;49.64
